sensor_id;sensor_type;location;lat;lon;timestamp;temperature;humidity
30648;DHT22;17683;53.360;9.736;2022-12-18T00:01:16;-6.60;99.90
30648;DHT22;17683;53.360;9.736;2022-12-18T00:03:42;-6.50;99.90
30648;DHT22;17683;53.360;9.736;2022-12-18T00:06:08;-6.50;99.90
30648;DHT22;17683;53.360;9.736;2022-12-18T00:08:34;-6.50;99.90
30648;DHT22;17683;53.360;9.736;2022-12-18T00:11:05;-6.50;99.90
30648;DHT22;17683;53.360;9.736;2022-12-18T00:13:31;-6.60;99.90
30648;DHT22;17683;53.360;9.736;2022-12-18T00:16:02;-6.60;99.90
30648;DHT22;17683;53.360;9.736;2022-12-18T00:18:28;-6.60;99.90
30648;DHT22;17683;53.360;9.736;2022-12-18T00:20:54;-6.70;99.90
30648;DHT22;17683;53.360;9.736;2022-12-18T00:23:23;-6.70;99.90
30648;DHT22;17683;53.360;9.736;2022-12-18T00:25:49;-6.70;99.90
30648;DHT22;17683;53.360;9.736;2022-12-18T00:28:14;-6.70;99.90
30648;DHT22;17683;53.360;9.736;2022-12-18T00:30:40;-6.70;99.90
30648;DHT22;17683;53.360;9.736;2022-12-18T00:33:06;-6.70;99.90
30648;DHT22;17683;53.360;9.736;2022-12-18T00:35:31;-6.70;99.90
30648;DHT22;17683;53.360;9.736;2022-12-18T00:37:57;-6.70;99.90
30648;DHT22;17683;53.360;9.736;2022-12-18T00:40:23;-6.70;99.90
30648;DHT22;17683;53.360;9.736;2022-12-18T00:42:48;-6.70;99.90
30648;DHT22;17683;53.360;9.736;2022-12-18T00:45:28;-6.70;99.90
30648;DHT22;17683;53.360;9.736;2022-12-18T00:47:55;-6.70;99.90
30648;DHT22;17683;53.360;9.736;2022-12-18T00:50:22;-6.70;99.90
30648;DHT22;17683;53.360;9.736;2022-12-18T00:52:48;-6.70;99.90
30648;DHT22;17683;53.360;9.736;2022-12-18T00:55:14;-6.70;99.90
30648;DHT22;17683;53.360;9.736;2022-12-18T00:57:40;-6.70;99.90
30648;DHT22;17683;53.360;9.736;2022-12-18T01:00:09;-6.70;99.90
30648;DHT22;17683;53.360;9.736;2022-12-18T01:02:35;-6.70;99.90
30648;DHT22;17683;53.360;9.736;2022-12-18T01:05:01;-6.70;99.90
30648;DHT22;17683;53.360;9.736;2022-12-18T01:07:26;-6.80;99.90
30648;DHT22;17683;53.360;9.736;2022-12-18T01:09:52;-6.70;99.90
30648;DHT22;17683;53.360;9.736;2022-12-18T01:12:18;-6.80;99.90
30648;DHT22;17683;53.360;9.736;2022-12-18T01:14:43;-6.80;99.90
30648;DHT22;17683;53.360;9.736;2022-12-18T01:17:09;-6.70;99.90
30648;DHT22;17683;53.360;9.736;2022-12-18T01:19:35;-6.70;99.90
30648;DHT22;17683;53.360;9.736;2022-12-18T01:22:01;-6.70;99.90
30648;DHT22;17683;53.360;9.736;2022-12-18T01:24:27;-6.70;99.90
30648;DHT22;17683;53.360;9.736;2022-12-18T01:26:52;-6.60;99.90
30648;DHT22;17683;53.360;9.736;2022-12-18T01:29:18;-6.60;99.90
30648;DHT22;17683;53.360;9.736;2022-12-18T01:31:44;-6.60;99.90
30648;DHT22;17683;53.360;9.736;2022-12-18T01:34:09;-6.60;99.90
30648;DHT22;17683;53.360;9.736;2022-12-18T01:36:37;-6.60;99.90
30648;DHT22;17683;53.360;9.736;2022-12-18T01:39:06;-6.60;99.90
30648;DHT22;17683;53.360;9.736;2022-12-18T01:41:33;-6.60;99.90
30648;DHT22;17683;53.360;9.736;2022-12-18T01:45:00;-6.60;99.90
30648;DHT22;17683;53.360;9.736;2022-12-18T01:50:00;-6.60;99.90
30648;DHT22;17683;53.360;9.736;2022-12-18T01:52:31;-6.60;99.90
30648;DHT22;17683;53.360;9.736;2022-12-18T01:54:58;-6.60;99.90
30648;DHT22;17683;53.360;9.736;2022-12-18T01:57:25;-6.60;99.90
30648;DHT22;17683;53.360;9.736;2022-12-18T01:59:53;-6.60;99.90
30648;DHT22;17683;53.360;9.736;2022-12-18T02:02:20;-6.70;99.90
30648;DHT22;17683;53.360;9.736;2022-12-18T02:04:46;-6.70;99.90
30648;DHT22;17683;53.360;9.736;2022-12-18T02:12:23;-6.80;99.90
30648;DHT22;17683;53.360;9.736;2022-12-18T02:15:00;-6.80;99.90
30648;DHT22;17683;53.360;9.736;2022-12-18T02:17:37;-6.80;99.90
30648;DHT22;17683;53.360;9.736;2022-12-18T02:20:40;-6.80;99.90
30648;DHT22;17683;53.360;9.736;2022-12-18T02:28:53;-6.80;99.90
30648;DHT22;17683;53.360;9.736;2022-12-18T02:31:29;-6.90;99.90
30648;DHT22;17683;53.360;9.736;2022-12-18T02:33:58;-6.90;99.90
30648;DHT22;17683;53.360;9.736;2022-12-18T02:36:27;-7.00;99.90
30648;DHT22;17683;53.360;9.736;2022-12-18T02:38:54;-7.00;99.90
30648;DHT22;17683;53.360;9.736;2022-12-18T02:41:24;-7.00;99.90
30648;DHT22;17683;53.360;9.736;2022-12-18T02:43:57;-7.00;99.90
30648;DHT22;17683;53.360;9.736;2022-12-18T02:52:07;-7.10;99.90
30648;DHT22;17683;53.360;9.736;2022-12-18T02:57:55;-7.10;99.90
30648;DHT22;17683;53.360;9.736;2022-12-18T03:00:37;-7.10;99.90
30648;DHT22;17683;53.360;9.736;2022-12-18T03:03:19;-7.10;99.90
30648;DHT22;17683;53.360;9.736;2022-12-18T03:06:10;-7.10;99.90
30648;DHT22;17683;53.360;9.736;2022-12-18T03:08:41;-7.10;99.90
30648;DHT22;17683;53.360;9.736;2022-12-18T03:11:10;-7.10;99.90
30648;DHT22;17683;53.360;9.736;2022-12-18T03:13:42;-7.10;99.90
30648;DHT22;17683;53.360;9.736;2022-12-18T03:16:12;-7.10;99.90
30648;DHT22;17683;53.360;9.736;2022-12-18T03:18:49;-7.20;99.90
30648;DHT22;17683;53.360;9.736;2022-12-18T03:21:19;-7.20;99.90
30648;DHT22;17683;53.360;9.736;2022-12-18T03:23:49;-7.30;99.90
30648;DHT22;17683;53.360;9.736;2022-12-18T03:26:20;-7.30;99.90
30648;DHT22;17683;53.360;9.736;2022-12-18T03:29:02;-7.20;99.90
30648;DHT22;17683;53.360;9.736;2022-12-18T03:31:29;-7.30;99.90
30648;DHT22;17683;53.360;9.736;2022-12-18T03:33:59;-7.30;99.90
30648;DHT22;17683;53.360;9.736;2022-12-18T03:36:26;-7.20;99.90
30648;DHT22;17683;53.360;9.736;2022-12-18T03:38:59;-7.20;99.90
30648;DHT22;17683;53.360;9.736;2022-12-18T03:46:53;-7.30;99.90
30648;DHT22;17683;53.360;9.736;2022-12-18T03:52:26;-7.30;99.90
30648;DHT22;17683;53.360;9.736;2022-12-18T03:54:41;-7.20;99.90
30648;DHT22;17683;53.360;9.736;2022-12-18T03:57:18;-7.30;99.90
30648;DHT22;17683;53.360;9.736;2022-12-18T03:59:45;-7.30;99.90
30648;DHT22;17683;53.360;9.736;2022-12-18T04:02:14;-7.20;99.90
30648;DHT22;17683;53.360;9.736;2022-12-18T04:04:42;-7.20;99.90
30648;DHT22;17683;53.360;9.736;2022-12-18T04:07:09;-7.30;99.90
30648;DHT22;17683;53.360;9.736;2022-12-18T04:09:36;-7.20;99.90
30648;DHT22;17683;53.360;9.736;2022-12-18T04:12:04;-7.20;99.90
30648;DHT22;17683;53.360;9.736;2022-12-18T04:14:29;-7.20;99.90
30648;DHT22;17683;53.360;9.736;2022-12-18T04:16:55;-7.20;99.90
30648;DHT22;17683;53.360;9.736;2022-12-18T04:19:21;-7.30;99.90
30648;DHT22;17683;53.360;9.736;2022-12-18T04:21:46;-7.20;99.90
30648;DHT22;17683;53.360;9.736;2022-12-18T04:24:12;-7.20;99.90
30648;DHT22;17683;53.360;9.736;2022-12-18T04:26:38;-7.20;99.90
30648;DHT22;17683;53.360;9.736;2022-12-18T04:29:03;-7.20;99.90
30648;DHT22;17683;53.360;9.736;2022-12-18T04:31:29;-7.30;99.90
30648;DHT22;17683;53.360;9.736;2022-12-18T04:33:55;-7.20;99.90
30648;DHT22;17683;53.360;9.736;2022-12-18T04:36:20;-7.20;99.90
30648;DHT22;17683;53.360;9.736;2022-12-18T04:38:46;-7.20;99.90
30648;DHT22;17683;53.360;9.736;2022-12-18T04:41:15;-7.30;99.90
30648;DHT22;17683;53.360;9.736;2022-12-18T04:43:41;-7.30;99.90
30648;DHT22;17683;53.360;9.736;2022-12-18T04:46:07;-7.30;99.90
30648;DHT22;17683;53.360;9.736;2022-12-18T04:48:34;-7.30;99.90
30648;DHT22;17683;53.360;9.736;2022-12-18T04:50:59;-7.20;99.90
30648;DHT22;17683;53.360;9.736;2022-12-18T04:53:25;-7.30;99.90
30648;DHT22;17683;53.360;9.736;2022-12-18T04:56:01;-7.30;99.90
30648;DHT22;17683;53.360;9.736;2022-12-18T04:58:27;-7.30;99.90
30648;DHT22;17683;53.360;9.736;2022-12-18T05:00:52;-7.40;99.90
30648;DHT22;17683;53.360;9.736;2022-12-18T05:03:18;-7.30;99.90
30648;DHT22;17683;53.360;9.736;2022-12-18T05:05:44;-7.30;99.90
30648;DHT22;17683;53.360;9.736;2022-12-18T05:08:09;-7.40;99.90
30648;DHT22;17683;53.360;9.736;2022-12-18T05:10:35;-7.40;99.90
30648;DHT22;17683;53.360;9.736;2022-12-18T05:13:00;-7.30;99.90
30648;DHT22;17683;53.360;9.736;2022-12-18T05:15:31;-7.30;99.90
30648;DHT22;17683;53.360;9.736;2022-12-18T05:17:58;-7.40;99.90
30648;DHT22;17683;53.360;9.736;2022-12-18T05:20:24;-7.40;99.90
30648;DHT22;17683;53.360;9.736;2022-12-18T05:22:51;-7.40;99.90
30648;DHT22;17683;53.360;9.736;2022-12-18T05:25:18;-7.40;99.90
30648;DHT22;17683;53.360;9.736;2022-12-18T05:27:43;-7.40;99.90
30648;DHT22;17683;53.360;9.736;2022-12-18T05:30:10;-7.40;99.90
30648;DHT22;17683;53.360;9.736;2022-12-18T05:32:36;-7.40;99.90
30648;DHT22;17683;53.360;9.736;2022-12-18T05:35:03;-7.40;99.90
30648;DHT22;17683;53.360;9.736;2022-12-18T05:37:29;-7.40;99.90
30648;DHT22;17683;53.360;9.736;2022-12-18T05:39:55;-7.40;99.90
30648;DHT22;17683;53.360;9.736;2022-12-18T05:42:20;-7.50;99.90
30648;DHT22;17683;53.360;9.736;2022-12-18T05:44:46;-7.50;99.90
30648;DHT22;17683;53.360;9.736;2022-12-18T05:47:12;-7.50;99.90
30648;DHT22;17683;53.360;9.736;2022-12-18T05:49:37;-7.50;99.90
30648;DHT22;17683;53.360;9.736;2022-12-18T05:52:03;-7.50;99.90
30648;DHT22;17683;53.360;9.736;2022-12-18T05:54:29;-7.50;99.90
30648;DHT22;17683;53.360;9.736;2022-12-18T05:56:54;-7.50;99.90
30648;DHT22;17683;53.360;9.736;2022-12-18T05:59:20;-7.50;99.90
30648;DHT22;17683;53.360;9.736;2022-12-18T06:01:46;-7.50;99.90
30648;DHT22;17683;53.360;9.736;2022-12-18T06:04:12;-7.50;99.90
30648;DHT22;17683;53.360;9.736;2022-12-18T06:06:37;-7.50;99.90
30648;DHT22;17683;53.360;9.736;2022-12-18T06:09:03;-7.60;99.90
30648;DHT22;17683;53.360;9.736;2022-12-18T06:11:36;-7.60;99.90
30648;DHT22;17683;53.360;9.736;2022-12-18T06:14:03;-7.60;99.90
30648;DHT22;17683;53.360;9.736;2022-12-18T06:16:30;-7.60;99.90
30648;DHT22;17683;53.360;9.736;2022-12-18T06:18:57;-7.60;99.90
30648;DHT22;17683;53.360;9.736;2022-12-18T06:21:23;-7.60;99.90
30648;DHT22;17683;53.360;9.736;2022-12-18T06:23:49;-7.60;99.90
30648;DHT22;17683;53.360;9.736;2022-12-18T06:26:15;-7.60;99.90
30648;DHT22;17683;53.360;9.736;2022-12-18T06:28:41;-7.60;99.90
30648;DHT22;17683;53.360;9.736;2022-12-18T06:31:07;-7.60;99.90
30648;DHT22;17683;53.360;9.736;2022-12-18T06:33:34;-7.60;99.90
30648;DHT22;17683;53.360;9.736;2022-12-18T06:36:04;-7.60;99.90
30648;DHT22;17683;53.360;9.736;2022-12-18T06:38:32;-7.60;99.90
30648;DHT22;17683;53.360;9.736;2022-12-18T06:40:58;-7.60;99.90
30648;DHT22;17683;53.360;9.736;2022-12-18T06:43:23;-7.60;99.90
30648;DHT22;17683;53.360;9.736;2022-12-18T06:45:49;-7.60;99.90
30648;DHT22;17683;53.360;9.736;2022-12-18T06:48:19;-7.60;99.90
30648;DHT22;17683;53.360;9.736;2022-12-18T06:50:45;-7.60;99.90
30648;DHT22;17683;53.360;9.736;2022-12-18T06:53:10;-7.70;99.90
30648;DHT22;17683;53.360;9.736;2022-12-18T06:55:36;-7.60;99.90
30648;DHT22;17683;53.360;9.736;2022-12-18T06:58:02;-7.60;99.90
30648;DHT22;17683;53.360;9.736;2022-12-18T07:00:28;-7.60;99.90
30648;DHT22;17683;53.360;9.736;2022-12-18T07:02:53;-7.60;99.90
30648;DHT22;17683;53.360;9.736;2022-12-18T07:05:19;-7.50;99.90
30648;DHT22;17683;53.360;9.736;2022-12-18T07:07:45;-7.50;99.90
30648;DHT22;17683;53.360;9.736;2022-12-18T07:10:11;-7.50;99.90
30648;DHT22;17683;53.360;9.736;2022-12-18T07:12:36;-7.50;99.90
30648;DHT22;17683;53.360;9.736;2022-12-18T07:15:02;-7.50;99.90
30648;DHT22;17683;53.360;9.736;2022-12-18T07:17:28;-7.50;99.90
30648;DHT22;17683;53.360;9.736;2022-12-18T07:19:55;-7.40;99.90
30648;DHT22;17683;53.360;9.736;2022-12-18T07:22:20;-7.40;99.90
30648;DHT22;17683;53.360;9.736;2022-12-18T07:24:49;-7.40;99.90
30648;DHT22;17683;53.360;9.736;2022-12-18T07:27:15;-7.40;99.90
30648;DHT22;17683;53.360;9.736;2022-12-18T07:29:41;-7.40;99.90
30648;DHT22;17683;53.360;9.736;2022-12-18T07:32:06;-7.40;99.90
30648;DHT22;17683;53.360;9.736;2022-12-18T07:34:32;-7.40;99.90
30648;DHT22;17683;53.360;9.736;2022-12-18T07:36:58;-7.40;99.90
30648;DHT22;17683;53.360;9.736;2022-12-18T07:39:24;-7.30;99.90
30648;DHT22;17683;53.360;9.736;2022-12-18T07:41:49;-7.30;99.90
30648;DHT22;17683;53.360;9.736;2022-12-18T07:44:35;-7.30;99.90
30648;DHT22;17683;53.360;9.736;2022-12-18T07:47:02;-7.20;99.90
30648;DHT22;17683;53.360;9.736;2022-12-18T07:49:27;-7.10;99.90
30648;DHT22;17683;53.360;9.736;2022-12-18T07:51:57;-7.10;99.90
30648;DHT22;17683;53.360;9.736;2022-12-18T07:54:24;-7.10;99.90
30648;DHT22;17683;53.360;9.736;2022-12-18T07:56:51;-7.00;99.90
30648;DHT22;17683;53.360;9.736;2022-12-18T07:59:17;-7.00;99.90
30648;DHT22;17683;53.360;9.736;2022-12-18T08:01:43;-6.90;99.90
30648;DHT22;17683;53.360;9.736;2022-12-18T08:04:09;-6.90;99.90
30648;DHT22;17683;53.360;9.736;2022-12-18T08:06:35;-6.80;99.90
30648;DHT22;17683;53.360;9.736;2022-12-18T08:09:00;-6.70;99.90
30648;DHT22;17683;53.360;9.736;2022-12-18T08:11:28;-6.60;99.90
30648;DHT22;17683;53.360;9.736;2022-12-18T08:13:54;-6.50;99.90
30648;DHT22;17683;53.360;9.736;2022-12-18T08:16:21;-6.50;99.90
30648;DHT22;17683;53.360;9.736;2022-12-18T08:18:47;-6.40;99.90
30648;DHT22;17683;53.360;9.736;2022-12-18T08:21:36;-6.40;99.90
30648;DHT22;17683;53.360;9.736;2022-12-18T08:24:03;-6.30;99.90
30648;DHT22;17683;53.360;9.736;2022-12-18T08:26:30;-6.30;99.90
30648;DHT22;17683;53.360;9.736;2022-12-18T08:28:58;-6.30;99.90
30648;DHT22;17683;53.360;9.736;2022-12-18T08:31:24;-6.20;99.90
30648;DHT22;17683;53.360;9.736;2022-12-18T08:33:52;-6.20;99.90
30648;DHT22;17683;53.360;9.736;2022-12-18T08:36:18;-6.20;99.90
30648;DHT22;17683;53.360;9.736;2022-12-18T08:38:44;-6.10;99.90
30648;DHT22;17683;53.360;9.736;2022-12-18T08:41:12;-6.10;99.90
30648;DHT22;17683;53.360;9.736;2022-12-18T08:43:38;-6.10;99.90
30648;DHT22;17683;53.360;9.736;2022-12-18T08:46:25;-6.10;99.90
30648;DHT22;17683;53.360;9.736;2022-12-18T08:48:52;-6.00;99.90
30648;DHT22;17683;53.360;9.736;2022-12-18T08:51:18;-6.00;99.90
30648;DHT22;17683;53.360;9.736;2022-12-18T08:53:44;-5.90;99.90
30648;DHT22;17683;53.360;9.736;2022-12-18T08:56:11;-5.90;99.90
30648;DHT22;17683;53.360;9.736;2022-12-18T08:58:37;-5.80;99.90
30648;DHT22;17683;53.360;9.736;2022-12-18T09:01:05;-5.80;99.90
30648;DHT22;17683;53.360;9.736;2022-12-18T09:03:31;-5.70;99.90
30648;DHT22;17683;53.360;9.736;2022-12-18T09:05:57;-5.70;99.90
30648;DHT22;17683;53.360;9.736;2022-12-18T09:08:23;-5.60;99.90
30648;DHT22;17683;53.360;9.736;2022-12-18T09:10:49;-5.50;99.90
30648;DHT22;17683;53.360;9.736;2022-12-18T09:13:16;-5.40;99.90
30648;DHT22;17683;53.360;9.736;2022-12-18T09:15:43;-5.40;99.90
30648;DHT22;17683;53.360;9.736;2022-12-18T09:18:11;-5.30;99.90
30648;DHT22;17683;53.360;9.736;2022-12-18T09:20:37;-5.20;99.90
30648;DHT22;17683;53.360;9.736;2022-12-18T09:23:03;-5.10;99.90
30648;DHT22;17683;53.360;9.736;2022-12-18T09:25:29;-5.00;99.90
30648;DHT22;17683;53.360;9.736;2022-12-18T09:28:03;-5.00;99.90
30648;DHT22;17683;53.360;9.736;2022-12-18T09:30:29;-4.90;99.90
30648;DHT22;17683;53.360;9.736;2022-12-18T09:32:55;-4.80;99.90
30648;DHT22;17683;53.360;9.736;2022-12-18T09:35:21;-4.70;99.90
30648;DHT22;17683;53.360;9.736;2022-12-18T09:37:47;-4.60;99.90
30648;DHT22;17683;53.360;9.736;2022-12-18T09:40:19;-4.60;99.90
30648;DHT22;17683;53.360;9.736;2022-12-18T09:42:49;-4.50;99.90
30648;DHT22;17683;53.360;9.736;2022-12-18T09:45:17;-4.40;99.90
30648;DHT22;17683;53.360;9.736;2022-12-18T09:47:45;-4.40;99.90
30648;DHT22;17683;53.360;9.736;2022-12-18T09:50:32;-4.30;99.90
30648;DHT22;17683;53.360;9.736;2022-12-18T09:53:02;-4.30;99.90
30648;DHT22;17683;53.360;9.736;2022-12-18T09:55:38;-4.20;99.90
30648;DHT22;17683;53.360;9.736;2022-12-18T09:58:18;-4.10;99.90
30648;DHT22;17683;53.360;9.736;2022-12-18T10:00:45;-4.10;99.90
30648;DHT22;17683;53.360;9.736;2022-12-18T10:03:15;-4.00;99.90
30648;DHT22;17683;53.360;9.736;2022-12-18T10:09:14;-3.80;99.90
30648;DHT22;17683;53.360;9.736;2022-12-18T10:14:34;-3.70;99.90
30648;DHT22;17683;53.360;9.736;2022-12-18T10:26:00;-3.50;99.90
30648;DHT22;17683;53.360;9.736;2022-12-18T10:28:27;-3.40;99.90
30648;DHT22;17683;53.360;9.736;2022-12-18T10:30:54;-3.30;99.90
30648;DHT22;17683;53.360;9.736;2022-12-18T10:33:23;-3.20;99.90
30648;DHT22;17683;53.360;9.736;2022-12-18T10:35:52;-3.10;99.90
30648;DHT22;17683;53.360;9.736;2022-12-18T10:43:34;-3.00;99.90
30648;DHT22;17683;53.360;9.736;2022-12-18T10:46:04;-2.90;99.90
30648;DHT22;17683;53.360;9.736;2022-12-18T10:48:33;-2.90;99.90
30648;DHT22;17683;53.360;9.736;2022-12-18T10:51:00;-2.90;99.90
30648;DHT22;17683;53.360;9.736;2022-12-18T10:53:30;-2.80;99.90
30648;DHT22;17683;53.360;9.736;2022-12-18T10:56:00;-2.80;99.90
30648;DHT22;17683;53.360;9.736;2022-12-18T10:58:33;-2.80;99.90
30648;DHT22;17683;53.360;9.736;2022-12-18T11:01:15;-2.70;99.90
30648;DHT22;17683;53.360;9.736;2022-12-18T11:03:42;-2.70;99.90
30648;DHT22;17683;53.360;9.736;2022-12-18T11:06:11;-2.70;99.90
30648;DHT22;17683;53.360;9.736;2022-12-18T11:08:38;-2.60;99.90
30648;DHT22;17683;53.360;9.736;2022-12-18T11:11:09;-2.60;99.90
30648;DHT22;17683;53.360;9.736;2022-12-18T11:13:40;-2.60;99.90
30648;DHT22;17683;53.360;9.736;2022-12-18T11:16:06;-2.50;99.90
30648;DHT22;17683;53.360;9.736;2022-12-18T11:18:33;-2.40;99.90
30648;DHT22;17683;53.360;9.736;2022-12-18T11:21:11;-2.50;99.90
30648;DHT22;17683;53.360;9.736;2022-12-18T11:23:46;-2.40;99.90
30648;DHT22;17683;53.360;9.736;2022-12-18T11:26:13;-2.30;99.90
30648;DHT22;17683;53.360;9.736;2022-12-18T11:28:53;-2.20;99.90
30648;DHT22;17683;53.360;9.736;2022-12-18T11:31:32;-2.10;99.90
30648;DHT22;17683;53.360;9.736;2022-12-18T11:34:22;-2.10;99.90
30648;DHT22;17683;53.360;9.736;2022-12-18T11:36:50;-2.00;99.90
30648;DHT22;17683;53.360;9.736;2022-12-18T11:50:18;-1.70;99.90
30648;DHT22;17683;53.360;9.736;2022-12-18T11:52:44;-1.70;99.90
30648;DHT22;17683;53.360;9.736;2022-12-18T11:55:14;-1.70;99.90
30648;DHT22;17683;53.360;9.736;2022-12-18T12:00:18;-1.60;99.90
30648;DHT22;17683;53.360;9.736;2022-12-18T12:03:03;-1.60;99.90
30648;DHT22;17683;53.360;9.736;2022-12-18T12:05:35;-1.50;99.90
30648;DHT22;17683;53.360;9.736;2022-12-18T12:16:47;-1.40;99.90
30648;DHT22;17683;53.360;9.736;2022-12-18T12:21:43;-1.30;99.90
30648;DHT22;17683;53.360;9.736;2022-12-18T12:24:23;-1.30;99.90
30648;DHT22;17683;53.360;9.736;2022-12-18T12:27:21;-1.20;99.90
30648;DHT22;17683;53.360;9.736;2022-12-18T12:38:44;-1.10;99.90
30648;DHT22;17683;53.360;9.736;2022-12-18T12:41:14;-1.00;99.90
30648;DHT22;17683;53.360;9.736;2022-12-18T12:44:04;-1.00;99.90
30648;DHT22;17683;53.360;9.736;2022-12-18T12:46:34;-1.00;99.90
30648;DHT22;17683;53.360;9.736;2022-12-18T12:49:09;-1.00;99.90
30648;DHT22;17683;53.360;9.736;2022-12-18T12:51:43;-1.00;99.90
30648;DHT22;17683;53.360;9.736;2022-12-18T12:54:16;-0.90;99.90
30648;DHT22;17683;53.360;9.736;2022-12-18T12:56:49;-0.90;99.90
30648;DHT22;17683;53.360;9.736;2022-12-18T13:02:30;-0.90;99.90
30648;DHT22;17683;53.360;9.736;2022-12-18T13:05:30;-0.90;99.90
30648;DHT22;17683;53.360;9.736;2022-12-18T13:08:10;-0.90;99.90
30648;DHT22;17683;53.360;9.736;2022-12-18T13:10:36;-0.90;99.90
30648;DHT22;17683;53.360;9.736;2022-12-18T13:13:11;-0.90;99.90
30648;DHT22;17683;53.360;9.736;2022-12-18T13:15:46;-0.90;99.90
30648;DHT22;17683;53.360;9.736;2022-12-18T13:18:20;-0.90;99.90
30648;DHT22;17683;53.360;9.736;2022-12-18T13:25:52;-0.90;99.90
30648;DHT22;17683;53.360;9.736;2022-12-18T13:31:11;-0.90;99.90
30648;DHT22;17683;53.360;9.736;2022-12-18T13:33:42;-0.90;99.90
30648;DHT22;17683;53.360;9.736;2022-12-18T13:36:15;-0.90;99.90
30648;DHT22;17683;53.360;9.736;2022-12-18T13:38:42;-1.00;99.90
30648;DHT22;17683;53.360;9.736;2022-12-18T13:43:50;-1.00;99.90
30648;DHT22;17683;53.360;9.736;2022-12-18T13:46:17;-1.10;99.90
30648;DHT22;17683;53.360;9.736;2022-12-18T13:48:51;-1.10;99.90
30648;DHT22;17683;53.360;9.736;2022-12-18T13:51:18;-1.10;99.90
30648;DHT22;17683;53.360;9.736;2022-12-18T13:53:50;-1.20;99.90
30648;DHT22;17683;53.360;9.736;2022-12-18T13:56:23;-1.20;99.90
30648;DHT22;17683;53.360;9.736;2022-12-18T14:01:34;-1.20;99.90
30648;DHT22;17683;53.360;9.736;2022-12-18T14:06:46;-1.30;99.90
30648;DHT22;17683;53.360;9.736;2022-12-18T14:09:27;-1.40;99.90
30648;DHT22;17683;53.360;9.736;2022-12-18T14:11:54;-1.40;99.90
30648;DHT22;17683;53.360;9.736;2022-12-18T14:14:48;-1.40;99.90
30648;DHT22;17683;53.360;9.736;2022-12-18T14:17:15;-1.50;99.90
30648;DHT22;17683;53.360;9.736;2022-12-18T14:19:43;-1.50;99.90
30648;DHT22;17683;53.360;9.736;2022-12-18T14:22:16;-1.60;99.90
30648;DHT22;17683;53.360;9.736;2022-12-18T14:24:42;-1.50;99.90
30648;DHT22;17683;53.360;9.736;2022-12-18T14:27:23;-1.50;99.90
30648;DHT22;17683;53.360;9.736;2022-12-18T14:29:49;-1.60;99.90
30648;DHT22;17683;53.360;9.736;2022-12-18T14:32:18;-1.60;99.90
30648;DHT22;17683;53.360;9.736;2022-12-18T14:34:46;-1.70;99.90
30648;DHT22;17683;53.360;9.736;2022-12-18T14:37:14;-1.70;99.90
30648;DHT22;17683;53.360;9.736;2022-12-18T14:39:40;-1.70;99.90
30648;DHT22;17683;53.360;9.736;2022-12-18T14:42:17;-1.70;99.90
30648;DHT22;17683;53.360;9.736;2022-12-18T14:44:42;-1.70;99.90
30648;DHT22;17683;53.360;9.736;2022-12-18T14:47:14;-1.80;99.90
30648;DHT22;17683;53.360;9.736;2022-12-18T14:49:41;-1.80;99.90
30648;DHT22;17683;53.360;9.736;2022-12-18T14:52:26;-1.80;99.90
30648;DHT22;17683;53.360;9.736;2022-12-18T14:54:53;-1.80;99.90
30648;DHT22;17683;53.360;9.736;2022-12-18T14:57:22;-1.80;99.90
30648;DHT22;17683;53.360;9.736;2022-12-18T14:59:49;-1.80;99.90
30648;DHT22;17683;53.360;9.736;2022-12-18T15:02:23;-1.90;99.90
30648;DHT22;17683;53.360;9.736;2022-12-18T15:05:02;-2.00;99.90
30648;DHT22;17683;53.360;9.736;2022-12-18T15:07:43;-2.00;99.90
30648;DHT22;17683;53.360;9.736;2022-12-18T15:10:21;-2.10;99.90
30648;DHT22;17683;53.360;9.736;2022-12-18T15:13:07;-2.00;99.90
30648;DHT22;17683;53.360;9.736;2022-12-18T15:18:03;-2.10;99.90
30648;DHT22;17683;53.360;9.736;2022-12-18T15:25:46;-2.30;99.90
30648;DHT22;17683;53.360;9.736;2022-12-18T15:28:34;-2.30;99.90
30648;DHT22;17683;53.360;9.736;2022-12-18T15:31:03;-2.40;99.90
30648;DHT22;17683;53.360;9.736;2022-12-18T15:33:37;-2.40;99.90
30648;DHT22;17683;53.360;9.736;2022-12-18T15:36:07;-2.40;99.90
30648;DHT22;17683;53.360;9.736;2022-12-18T15:38:34;-2.40;99.90
30648;DHT22;17683;53.360;9.736;2022-12-18T15:41:00;-2.40;99.90
30648;DHT22;17683;53.360;9.736;2022-12-18T15:43:29;-2.40;99.90
30648;DHT22;17683;53.360;9.736;2022-12-18T15:48:28;-2.50;99.90
30648;DHT22;17683;53.360;9.736;2022-12-18T15:50:56;-2.40;99.90
30648;DHT22;17683;53.360;9.736;2022-12-18T15:53:24;-2.50;99.90
30648;DHT22;17683;53.360;9.736;2022-12-18T15:55:50;-2.50;99.90
30648;DHT22;17683;53.360;9.736;2022-12-18T15:58:35;-2.40;99.90
30648;DHT22;17683;53.360;9.736;2022-12-18T16:01:01;-2.50;99.90
30648;DHT22;17683;53.360;9.736;2022-12-18T16:03:27;-2.50;99.90
30648;DHT22;17683;53.360;9.736;2022-12-18T16:05:53;-2.40;99.90
30648;DHT22;17683;53.360;9.736;2022-12-18T16:08:19;-2.40;99.90
30648;DHT22;17683;53.360;9.736;2022-12-18T16:10:44;-2.40;99.90
30648;DHT22;17683;53.360;9.736;2022-12-18T16:13:15;-2.40;99.90
30648;DHT22;17683;53.360;9.736;2022-12-18T16:15:41;-2.40;99.90
30648;DHT22;17683;53.360;9.736;2022-12-18T16:18:07;-2.40;99.90
30648;DHT22;17683;53.360;9.736;2022-12-18T16:20:32;-2.40;99.90
30648;DHT22;17683;53.360;9.736;2022-12-18T16:22:58;-2.40;99.90
30648;DHT22;17683;53.360;9.736;2022-12-18T16:25:26;-2.40;99.90
30648;DHT22;17683;53.360;9.736;2022-12-18T16:27:53;-2.40;99.90
30648;DHT22;17683;53.360;9.736;2022-12-18T16:30:25;-2.40;99.90
30648;DHT22;17683;53.360;9.736;2022-12-18T16:32:54;-2.40;99.90
30648;DHT22;17683;53.360;9.736;2022-12-18T16:35:21;-2.40;99.90
30648;DHT22;17683;53.360;9.736;2022-12-18T16:37:46;-2.40;99.90
30648;DHT22;17683;53.360;9.736;2022-12-18T16:40:14;-2.40;99.90
30648;DHT22;17683;53.360;9.736;2022-12-18T16:42:42;-2.40;99.90
30648;DHT22;17683;53.360;9.736;2022-12-18T16:45:10;-2.40;99.90
30648;DHT22;17683;53.360;9.736;2022-12-18T16:47:36;-2.40;99.90
30648;DHT22;17683;53.360;9.736;2022-12-18T16:50:03;-2.40;99.90
30648;DHT22;17683;53.360;9.736;2022-12-18T16:52:29;-2.40;99.90
30648;DHT22;17683;53.360;9.736;2022-12-18T16:54:55;-2.40;99.90
30648;DHT22;17683;53.360;9.736;2022-12-18T16:57:21;-2.40;99.90
30648;DHT22;17683;53.360;9.736;2022-12-18T16:59:48;-2.40;99.90
30648;DHT22;17683;53.360;9.736;2022-12-18T17:02:19;-2.40;99.90
30648;DHT22;17683;53.360;9.736;2022-12-18T17:04:45;-2.40;99.90
30648;DHT22;17683;53.360;9.736;2022-12-18T17:07:12;-2.40;99.90
30648;DHT22;17683;53.360;9.736;2022-12-18T17:09:39;-2.40;99.90
30648;DHT22;17683;53.360;9.736;2022-12-18T17:12:05;-2.40;99.90
30648;DHT22;17683;53.360;9.736;2022-12-18T17:14:32;-2.40;99.90
30648;DHT22;17683;53.360;9.736;2022-12-18T17:16:58;-2.40;99.90
30648;DHT22;17683;53.360;9.736;2022-12-18T17:19:27;-2.40;99.90
30648;DHT22;17683;53.360;9.736;2022-12-18T17:21:53;-2.40;99.90
30648;DHT22;17683;53.360;9.736;2022-12-18T17:24:19;-2.40;99.90
30648;DHT22;17683;53.360;9.736;2022-12-18T17:26:45;-2.40;99.90
30648;DHT22;17683;53.360;9.736;2022-12-18T17:29:14;-2.50;99.90
30648;DHT22;17683;53.360;9.736;2022-12-18T17:31:39;-2.50;99.90
30648;DHT22;17683;53.360;9.736;2022-12-18T17:34:05;-2.40;99.90
30648;DHT22;17683;53.360;9.736;2022-12-18T17:36:31;-2.40;99.90